sensor_id;sensor_type;location;lat;lon;timestamp;P1;durP1;ratioP1;P2;durP2;ratioP2
71715;SDS011;59568;52.128;5.434;2023-07-31T00:00:02;2.33;;;0.33;;
71715;SDS011;59568;52.128;5.434;2023-07-31T00:02:33;1.38;;;0.43;;
71715;SDS011;59568;52.128;5.434;2023-07-31T00:05:02;4.38;;;0.50;;
71715;SDS011;59568;52.128;5.434;2023-07-31T00:07:34;1.42;;;0.50;;
71715;SDS011;59568;52.128;5.434;2023-07-31T00:10:06;4.07;;;0.60;;
71715;SDS011;59568;52.128;5.434;2023-07-31T00:12:37;3.33;;;0.40;;
71715;SDS011;59568;52.128;5.434;2023-07-31T00:15:09;2.05;;;0.47;;
71715;SDS011;59568;52.128;5.434;2023-07-31T00:17:42;1.20;;;0.32;;
71715;SDS011;59568;52.128;5.434;2023-07-31T00:20:09;2.47;;;0.40;;
71715;SDS011;59568;52.128;5.434;2023-07-31T00:22:47;2.05;;;0.30;;
71715;SDS011;59568;52.128;5.434;2023-07-31T00:25:16;1.57;;;0.40;;
71715;SDS011;59568;52.128;5.434;2023-07-31T00:27:44;2.20;;;0.70;;
71715;SDS011;59568;52.128;5.434;2023-07-31T00:30:14;1.08;;;0.40;;
71715;SDS011;59568;52.128;5.434;2023-07-31T00:32:44;1.98;;;0.60;;
71715;SDS011;59568;52.128;5.434;2023-07-31T00:35:14;2.17;;;0.93;;
71715;SDS011;59568;52.128;5.434;2023-07-31T00:37:44;2.73;;;0.60;;
71715;SDS011;59568;52.128;5.434;2023-07-31T00:40:11;2.95;;;0.60;;
71715;SDS011;59568;52.128;5.434;2023-07-31T00:42:47;4.40;;;1.23;;
71715;SDS011;59568;52.128;5.434;2023-07-31T00:45:14;6.97;;;1.70;;
71715;SDS011;59568;52.128;5.434;2023-07-31T00:47:46;10.25;;;2.00;;
71715;SDS011;59568;52.128;5.434;2023-07-31T00:50:17;10.63;;;1.67;;
71715;SDS011;59568;52.128;5.434;2023-07-31T00:52:45;10.00;;;2.15;;
71715;SDS011;59568;52.128;5.434;2023-07-31T00:55:13;13.77;;;3.08;;
71715;SDS011;59568;52.128;5.434;2023-07-31T00:57:43;19.40;;;2.38;;
71715;SDS011;59568;52.128;5.434;2023-07-31T01:00:12;18.63;;;2.42;;
71715;SDS011;59568;52.128;5.434;2023-07-31T01:02:41;21.67;;;3.57;;
71715;SDS011;59568;52.128;5.434;2023-07-31T01:05:19;20.73;;;3.75;;
71715;SDS011;59568;52.128;5.434;2023-07-31T01:08:32;20.77;;;3.22;;
71715;SDS011;59568;52.128;5.434;2023-07-31T01:11:09;18.42;;;2.88;;
71715;SDS011;59568;52.128;5.434;2023-07-31T01:13:44;22.92;;;3.90;;
71715;SDS011;59568;52.128;5.434;2023-07-31T01:16:13;23.10;;;3.60;;
71715;SDS011;59568;52.128;5.434;2023-07-31T01:18:40;14.23;;;3.10;;
71715;SDS011;59568;52.128;5.434;2023-07-31T01:21:18;30.10;;;3.70;;
71715;SDS011;59568;52.128;5.434;2023-07-31T01:24:13;13.48;;;3.25;;
71715;SDS011;59568;52.128;5.434;2023-07-31T01:26:49;14.88;;;2.83;;
71715;SDS011;59568;52.128;5.434;2023-07-31T01:32:40;9.40;;;1.80;;
71715;SDS011;59568;52.128;5.434;2023-07-31T01:35:08;8.77;;;1.65;;
71715;SDS011;59568;52.128;5.434;2023-07-31T01:37:40;13.23;;;2.20;;
71715;SDS011;59568;52.128;5.434;2023-07-31T01:40:08;13.02;;;1.90;;
71715;SDS011;59568;52.128;5.434;2023-07-31T01:42:36;15.60;;;2.33;;
71715;SDS011;59568;52.128;5.434;2023-07-31T01:45:03;9.27;;;1.83;;
71715;SDS011;59568;52.128;5.434;2023-07-31T01:47:33;15.65;;;2.75;;
71715;SDS011;59568;52.128;5.434;2023-07-31T01:50:12;20.92;;;3.00;;
71715;SDS011;59568;52.128;5.434;2023-07-31T01:52:44;17.88;;;2.88;;
71715;SDS011;59568;52.128;5.434;2023-07-31T01:55:20;12.93;;;2.60;;
71715;SDS011;59568;52.128;5.434;2023-07-31T01:57:49;16.08;;;3.25;;
71715;SDS011;59568;52.128;5.434;2023-07-31T02:00:30;18.15;;;3.20;;
71715;SDS011;59568;52.128;5.434;2023-07-31T02:03:05;15.85;;;3.30;;
71715;SDS011;59568;52.128;5.434;2023-07-31T02:05:48;15.98;;;3.28;;
71715;SDS011;59568;52.128;5.434;2023-07-31T02:08:16;11.90;;;3.30;;
71715;SDS011;59568;52.128;5.434;2023-07-31T02:10:45;19.88;;;3.15;;
71715;SDS011;59568;52.128;5.434;2023-07-31T02:13:12;12.32;;;2.80;;
71715;SDS011;59568;52.128;5.434;2023-07-31T02:15:41;16.63;;;2.95;;
71715;SDS011;59568;52.128;5.434;2023-07-31T02:18:10;18.45;;;3.20;;
71715;SDS011;59568;52.128;5.434;2023-07-31T02:20:38;17.90;;;2.90;;
71715;SDS011;59568;52.128;5.434;2023-07-31T02:23:07;14.02;;;2.83;;
71715;SDS011;59568;52.128;5.434;2023-07-31T02:25:35;12.98;;;2.85;;
71715;SDS011;59568;52.128;5.434;2023-07-31T02:28:11;14.00;;;2.75;;
71715;SDS011;59568;52.128;5.434;2023-07-31T02:30:44;11.75;;;2.80;;
71715;SDS011;59568;52.128;5.434;2023-07-31T02:33:14;11.80;;;2.50;;
71715;SDS011;59568;52.128;5.434;2023-07-31T02:35:45;11.23;;;3.35;;
71715;SDS011;59568;52.128;5.434;2023-07-31T02:38:13;13.73;;;2.60;;
71715;SDS011;59568;52.128;5.434;2023-07-31T02:40:40;18.27;;;2.95;;
71715;SDS011;59568;52.128;5.434;2023-07-31T02:43:10;14.93;;;2.80;;
71715;SDS011;59568;52.128;5.434;2023-07-31T02:45:37;12.13;;;2.77;;
71715;SDS011;59568;52.128;5.434;2023-07-31T02:48:04;9.75;;;3.00;;
71715;SDS011;59568;52.128;5.434;2023-07-31T02:50:34;13.32;;;2.63;;
71715;SDS011;59568;52.128;5.434;2023-07-31T02:53:01;17.90;;;2.63;;
71715;SDS011;59568;52.128;5.434;2023-07-31T02:55:35;15.43;;;2.70;;
71715;SDS011;59568;52.128;5.434;2023-07-31T02:58:02;12.93;;;2.70;;
71715;SDS011;59568;52.128;5.434;2023-07-31T03:00:29;17.85;;;3.78;;
71715;SDS011;59568;52.128;5.434;2023-07-31T03:02:56;13.23;;;2.95;;
71715;SDS011;59568;52.128;5.434;2023-07-31T03:05:23;13.85;;;2.65;;
71715;SDS011;59568;52.128;5.434;2023-07-31T03:07:49;19.38;;;3.35;;
71715;SDS011;59568;52.128;5.434;2023-07-31T03:10:17;12.57;;;2.53;;
71715;SDS011;59568;52.128;5.434;2023-07-31T03:12:48;21.08;;;3.40;;
71715;SDS011;59568;52.128;5.434;2023-07-31T03:15:19;14.68;;;3.40;;
71715;SDS011;59568;52.128;5.434;2023-07-31T03:17:46;14.98;;;3.25;;
71715;SDS011;59568;52.128;5.434;2023-07-31T03:20:13;16.00;;;3.33;;
71715;SDS011;59568;52.128;5.434;2023-07-31T03:22:45;16.93;;;3.00;;
71715;SDS011;59568;52.128;5.434;2023-07-31T03:25:15;15.02;;;3.50;;
71715;SDS011;59568;52.128;5.434;2023-07-31T03:27:44;16.88;;;3.85;;
71715;SDS011;59568;52.128;5.434;2023-07-31T03:30:13;13.27;;;3.38;;
71715;SDS011;59568;52.128;5.434;2023-07-31T03:32:40;14.43;;;3.47;;
71715;SDS011;59568;52.128;5.434;2023-07-31T03:35:07;20.57;;;3.80;;
71715;SDS011;59568;52.128;5.434;2023-07-31T03:37:33;21.58;;;3.47;;
71715;SDS011;59568;52.128;5.434;2023-07-31T03:40:01;12.15;;;3.63;;
71715;SDS011;59568;52.128;5.434;2023-07-31T03:42:27;22.60;;;4.22;;
71715;SDS011;59568;52.128;5.434;2023-07-31T03:44:54;18.90;;;4.00;;
71715;SDS011;59568;52.128;5.434;2023-07-31T03:47:21;16.10;;;3.50;;
71715;SDS011;59568;52.128;5.434;2023-07-31T03:49:48;16.20;;;3.20;;
71715;SDS011;59568;52.128;5.434;2023-07-31T03:52:15;16.77;;;4.22;;
71715;SDS011;59568;52.128;5.434;2023-07-31T03:54:41;20.33;;;4.20;;
71715;SDS011;59568;52.128;5.434;2023-07-31T03:57:10;13.68;;;3.67;;
71715;SDS011;59568;52.128;5.434;2023-07-31T03:59:37;17.23;;;3.97;;
71715;SDS011;59568;52.128;5.434;2023-07-31T04:02:06;18.17;;;4.18;;
71715;SDS011;59568;52.128;5.434;2023-07-31T04:04:33;17.45;;;4.43;;
71715;SDS011;59568;52.128;5.434;2023-07-31T04:07:01;21.17;;;3.40;;
71715;SDS011;59568;52.128;5.434;2023-07-31T04:09:28;17.08;;;3.75;;
71715;SDS011;59568;52.128;5.434;2023-07-31T04:11:54;20.80;;;3.90;;
71715;SDS011;59568;52.128;5.434;2023-07-31T04:14:22;15.40;;;3.95;;
71715;SDS011;59568;52.128;5.434;2023-07-31T04:16:50;18.63;;;4.47;;
71715;SDS011;59568;52.128;5.434;2023-07-31T04:19:17;17.50;;;4.05;;
71715;SDS011;59568;52.128;5.434;2023-07-31T04:21:44;14.00;;;4.03;;
71715;SDS011;59568;52.128;5.434;2023-07-31T04:24:11;13.27;;;4.23;;
71715;SDS011;59568;52.128;5.434;2023-07-31T04:26:37;17.33;;;3.90;;
71715;SDS011;59568;52.128;5.434;2023-07-31T04:29:04;15.07;;;3.83;;
71715;SDS011;59568;52.128;5.434;2023-07-31T04:31:31;15.30;;;4.05;;
71715;SDS011;59568;52.128;5.434;2023-07-31T04:34:00;22.30;;;5.00;;
71715;SDS011;59568;52.128;5.434;2023-07-31T04:36:27;14.87;;;4.10;;
71715;SDS011;59568;52.128;5.434;2023-07-31T04:38:54;16.23;;;4.50;;
71715;SDS011;59568;52.128;5.434;2023-07-31T04:41:20;17.55;;;4.00;;
71715;SDS011;59568;52.128;5.434;2023-07-31T04:43:47;15.50;;;4.00;;
71715;SDS011;59568;52.128;5.434;2023-07-31T04:46:14;17.60;;;4.20;;
71715;SDS011;59568;52.128;5.434;2023-07-31T04:48:41;24.63;;;4.10;;
71715;SDS011;59568;52.128;5.434;2023-07-31T04:51:07;13.85;;;4.65;;
71715;SDS011;59568;52.128;5.434;2023-07-31T04:53:35;18.13;;;3.72;;
71715;SDS011;59568;52.128;5.434;2023-07-31T04:56:02;13.43;;;3.85;;
71715;SDS011;59568;52.128;5.434;2023-07-31T04:58:29;18.17;;;4.15;;
71715;SDS011;59568;52.128;5.434;2023-07-31T05:00:55;16.43;;;4.13;;
71715;SDS011;59568;52.128;5.434;2023-07-31T05:03:22;22.80;;;3.90;;
71715;SDS011;59568;52.128;5.434;2023-07-31T05:05:51;12.57;;;3.33;;
71715;SDS011;59568;52.128;5.434;2023-07-31T05:08:17;20.42;;;3.60;;
71715;SDS011;59568;52.128;5.434;2023-07-31T05:10:44;10.98;;;3.25;;
71715;SDS011;59568;52.128;5.434;2023-07-31T05:13:10;17.40;;;3.77;;
71715;SDS011;59568;52.128;5.434;2023-07-31T05:15:37;14.68;;;3.58;;
71715;SDS011;59568;52.128;5.434;2023-07-31T05:18:04;13.75;;;3.60;;
71715;SDS011;59568;52.128;5.434;2023-07-31T05:20:31;18.45;;;4.65;;
71715;SDS011;59568;52.128;5.434;2023-07-31T05:22:58;14.27;;;3.88;;
71715;SDS011;59568;52.128;5.434;2023-07-31T05:25:25;21.40;;;3.83;;
71715;SDS011;59568;52.128;5.434;2023-07-31T05:27:52;12.35;;;3.38;;
71715;SDS011;59568;52.128;5.434;2023-07-31T05:30:19;12.27;;;3.95;;
71715;SDS011;59568;52.128;5.434;2023-07-31T05:32:46;10.90;;;3.80;;
71715;SDS011;59568;52.128;5.434;2023-07-31T05:35:12;14.43;;;3.35;;
71715;SDS011;59568;52.128;5.434;2023-07-31T05:37:39;10.93;;;2.90;;
71715;SDS011;59568;52.128;5.434;2023-07-31T05:40:06;11.38;;;2.20;;
71715;SDS011;59568;52.128;5.434;2023-07-31T05:42:33;8.50;;;2.60;;
71715;SDS011;59568;52.128;5.434;2023-07-31T05:45:00;9.85;;;2.38;;
71715;SDS011;59568;52.128;5.434;2023-07-31T05:47:27;7.22;;;2.13;;
71715;SDS011;59568;52.128;5.434;2023-07-31T05:49:54;5.30;;;2.20;;
71715;SDS011;59568;52.128;5.434;2023-07-31T05:52:20;7.82;;;1.95;;
71715;SDS011;59568;52.128;5.434;2023-07-31T05:54:47;5.82;;;2.20;;
71715;SDS011;59568;52.128;5.434;2023-07-31T05:57:13;5.60;;;2.10;;
71715;SDS011;59568;52.128;5.434;2023-07-31T05:59:40;7.53;;;2.22;;
71715;SDS011;59568;52.128;5.434;2023-07-31T06:02:07;7.77;;;2.00;;
71715;SDS011;59568;52.128;5.434;2023-07-31T06:04:33;10.75;;;2.63;;
71715;SDS011;59568;52.128;5.434;2023-07-31T06:07:00;8.05;;;2.72;;
71715;SDS011;59568;52.128;5.434;2023-07-31T06:09:27;7.97;;;2.30;;
71715;SDS011;59568;52.128;5.434;2023-07-31T06:11:53;9.80;;;2.85;;
71715;SDS011;59568;52.128;5.434;2023-07-31T06:14:20;8.50;;;2.40;;
71715;SDS011;59568;52.128;5.434;2023-07-31T06:16:47;9.43;;;2.75;;
71715;SDS011;59568;52.128;5.434;2023-07-31T06:19:13;7.75;;;2.70;;
71715;SDS011;59568;52.128;5.434;2023-07-31T06:21:40;8.18;;;2.72;;
71715;SDS011;59568;52.128;5.434;2023-07-31T06:24:09;7.85;;;2.85;;
71715;SDS011;59568;52.128;5.434;2023-07-31T06:26:36;6.93;;;2.60;;
71715;SDS011;59568;52.128;5.434;2023-07-31T06:29:03;5.80;;;2.40;;
71715;SDS011;59568;52.128;5.434;2023-07-31T06:31:30;5.50;;;2.20;;
71715;SDS011;59568;52.128;5.434;2023-07-31T06:33:57;5.75;;;2.63;;
71715;SDS011;59568;52.128;5.434;2023-07-31T06:36:23;11.18;;;2.53;;
71715;SDS011;59568;52.128;5.434;2023-07-31T06:38:51;10.40;;;2.50;;
71715;SDS011;59568;52.128;5.434;2023-07-31T06:41:17;5.82;;;2.17;;
71715;SDS011;59568;52.128;5.434;2023-07-31T06:43:44;7.18;;;2.58;;
71715;SDS011;59568;52.128;5.434;2023-07-31T06:46:10;7.63;;;2.10;;
71715;SDS011;59568;52.128;5.434;2023-07-31T06:48:37;5.70;;;1.95;;
71715;SDS011;59568;52.128;5.434;2023-07-31T06:51:04;4.80;;;2.00;;
71715;SDS011;59568;52.128;5.434;2023-07-31T06:53:31;5.78;;;2.17;;
71715;SDS011;59568;52.128;5.434;2023-07-31T06:55:58;4.93;;;1.63;;
71715;SDS011;59568;52.128;5.434;2023-07-31T06:58:24;5.47;;;1.83;;
71715;SDS011;59568;52.128;5.434;2023-07-31T07:00:51;5.55;;;1.98;;
71715;SDS011;59568;52.128;5.434;2023-07-31T07:03:18;4.37;;;1.47;;
71715;SDS011;59568;52.128;5.434;2023-07-31T07:05:45;5.75;;;2.20;;
71715;SDS011;59568;52.128;5.434;2023-07-31T07:08:12;4.30;;;1.70;;
71715;SDS011;59568;52.128;5.434;2023-07-31T07:10:39;5.68;;;2.25;;
71715;SDS011;59568;52.128;5.434;2023-07-31T07:13:06;4.53;;;2.42;;
71715;SDS011;59568;52.128;5.434;2023-07-31T07:15:32;4.83;;;1.73;;
71715;SDS011;59568;52.128;5.434;2023-07-31T07:17:59;6.07;;;1.98;;
71715;SDS011;59568;52.128;5.434;2023-07-31T07:20:26;7.18;;;1.95;;
71715;SDS011;59568;52.128;5.434;2023-07-31T07:22:52;4.95;;;1.92;;
71715;SDS011;59568;52.128;5.434;2023-07-31T07:25:19;3.67;;;1.77;;
71715;SDS011;59568;52.128;5.434;2023-07-31T07:27:46;6.13;;;2.40;;
71715;SDS011;59568;52.128;5.434;2023-07-31T07:30:12;5.85;;;2.05;;
71715;SDS011;59568;52.128;5.434;2023-07-31T07:32:40;4.25;;;2.40;;
71715;SDS011;59568;52.128;5.434;2023-07-31T07:35:07;6.25;;;2.30;;
71715;SDS011;59568;52.128;5.434;2023-07-31T07:37:34;5.22;;;2.17;;
71715;SDS011;59568;52.128;5.434;2023-07-31T07:40:00;4.53;;;2.00;;
71715;SDS011;59568;52.128;5.434;2023-07-31T07:42:27;6.03;;;2.33;;
71715;SDS011;59568;52.128;5.434;2023-07-31T07:44:54;3.47;;;2.15;;
71715;SDS011;59568;52.128;5.434;2023-07-31T07:47:20;5.25;;;2.58;;
71715;SDS011;59568;52.128;5.434;2023-07-31T07:49:51;5.03;;;2.13;;
71715;SDS011;59568;52.128;5.434;2023-07-31T07:52:18;6.67;;;2.03;;
71715;SDS011;59568;52.128;5.434;2023-07-31T07:54:45;3.20;;;2.50;;
71715;SDS011;59568;52.128;5.434;2023-07-31T07:57:11;5.40;;;2.22;;
71715;SDS011;59568;52.128;5.434;2023-07-31T07:59:40;4.28;;;2.38;;
71715;SDS011;59568;52.128;5.434;2023-07-31T08:02:08;4.55;;;1.90;;
71715;SDS011;59568;52.128;5.434;2023-07-31T08:04:35;4.40;;;2.00;;
71715;SDS011;59568;52.128;5.434;2023-07-31T08:07:01;3.60;;;1.48;;
71715;SDS011;59568;52.128;5.434;2023-07-31T08:09:28;3.05;;;1.63;;
71715;SDS011;59568;52.128;5.434;2023-07-31T08:11:55;4.65;;;1.67;;
71715;SDS011;59568;52.128;5.434;2023-07-31T08:14:24;4.03;;;1.85;;
71715;SDS011;59568;52.128;5.434;2023-07-31T08:16:50;2.83;;;1.33;;
71715;SDS011;59568;52.128;5.434;2023-07-31T08:19:17;3.65;;;1.20;;
71715;SDS011;59568;52.128;5.434;2023-07-31T08:21:44;3.03;;;1.13;;
71715;SDS011;59568;52.128;5.434;2023-07-31T08:24:11;2.20;;;1.08;;
71715;SDS011;59568;52.128;5.434;2023-07-31T08:26:38;3.88;;;1.23;;
71715;SDS011;59568;52.128;5.434;2023-07-31T08:29:05;4.23;;;1.10;;
71715;SDS011;59568;52.128;5.434;2023-07-31T08:31:31;2.38;;;1.10;;
71715;SDS011;59568;52.128;5.434;2023-07-31T08:33:58;2.75;;;1.10;;
71715;SDS011;59568;52.128;5.434;2023-07-31T08:36:25;2.22;;;1.20;;
71715;SDS011;59568;52.128;5.434;2023-07-31T08:38:55;2.75;;;1.10;;
71715;SDS011;59568;52.128;5.434;2023-07-31T08:41:25;2.30;;;0.77;;
71715;SDS011;59568;52.128;5.434;2023-07-31T08:43:52;2.15;;;0.82;;
71715;SDS011;59568;52.128;5.434;2023-07-31T08:46:21;2.05;;;0.75;;
71715;SDS011;59568;52.128;5.434;2023-07-31T08:48:51;2.40;;;0.80;;
71715;SDS011;59568;52.128;5.434;2023-07-31T08:52:00;1.50;;;0.90;;
71715;SDS011;59568;52.128;5.434;2023-07-31T08:54:45;2.53;;;1.00;;
71715;SDS011;59568;52.128;5.434;2023-07-31T08:57:11;1.55;;;0.80;;
71715;SDS011;59568;52.128;5.434;2023-07-31T08:59:40;2.20;;;0.65;;
71715;SDS011;59568;52.128;5.434;2023-07-31T09:02:17;2.70;;;0.90;;
71715;SDS011;59568;52.128;5.434;2023-07-31T09:04:46;1.60;;;0.73;;
71715;SDS011;59568;52.128;5.434;2023-07-31T09:07:20;1.83;;;0.70;;
71715;SDS011;59568;52.128;5.434;2023-07-31T09:09:48;2.83;;;0.63;;
71715;SDS011;59568;52.128;5.434;2023-07-31T09:12:16;1.80;;;0.90;;
71715;SDS011;59568;52.128;5.434;2023-07-31T09:14:43;1.40;;;0.80;;
71715;SDS011;59568;52.128;5.434;2023-07-31T09:17:13;3.30;;;1.17;;
71715;SDS011;59568;52.128;5.434;2023-07-31T09:19:40;1.73;;;0.90;;
71715;SDS011;59568;52.128;5.434;2023-07-31T09:22:07;3.17;;;1.08;;
71715;SDS011;59568;52.128;5.434;2023-07-31T09:24:34;2.53;;;1.13;;
71715;SDS011;59568;52.128;5.434;2023-07-31T09:27:01;3.70;;;1.30;;
71715;SDS011;59568;52.128;5.434;2023-07-31T09:29:28;3.42;;;1.40;;
71715;SDS011;59568;52.128;5.434;2023-07-31T09:31:56;3.33;;;0.93;;
71715;SDS011;59568;52.128;5.434;2023-07-31T09:34:28;1.70;;;0.90;;
71715;SDS011;59568;52.128;5.434;2023-07-31T09:36:57;2.88;;;1.20;;
71715;SDS011;59568;52.128;5.434;2023-07-31T09:39:29;2.97;;;1.38;;
71715;SDS011;59568;52.128;5.434;2023-07-31T09:42:01;2.63;;;1.08;;
71715;SDS011;59568;52.128;5.434;2023-07-31T09:44:46;4.13;;;1.37;;
71715;SDS011;59568;52.128;5.434;2023-07-31T09:47:22;2.13;;;1.20;;
71715;SDS011;59568;52.128;5.434;2023-07-31T09:49:53;3.42;;;1.10;;
71715;SDS011;59568;52.128;5.434;2023-07-31T09:52:20;5.43;;;1.55;;
71715;SDS011;59568;52.128;5.434;2023-07-31T09:54:47;2.55;;;1.20;;
71715;SDS011;59568;52.128;5.434;2023-07-31T09:57:20;4.00;;;1.40;;
71715;SDS011;59568;52.128;5.434;2023-07-31T09:59:53;2.78;;;1.20;;
71715;SDS011;59568;52.128;5.434;2023-07-31T10:02:28;3.13;;;1.50;;
71715;SDS011;59568;52.128;5.434;2023-07-31T10:04:57;2.38;;;1.10;;
71715;SDS011;59568;52.128;5.434;2023-07-31T10:07:26;2.63;;;1.00;;
71715;SDS011;59568;52.128;5.434;2023-07-31T10:09:57;3.63;;;1.20;;
71715;SDS011;59568;52.128;5.434;2023-07-31T10:12:34;2.80;;;0.90;;
71715;SDS011;59568;52.128;5.434;2023-07-31T10:15:06;3.53;;;1.27;;
71715;SDS011;59568;52.128;5.434;2023-07-31T10:17:35;3.03;;;1.15;;
71715;SDS011;59568;52.128;5.434;2023-07-31T10:20:03;2.58;;;1.23;;
71715;SDS011;59568;52.128;5.434;2023-07-31T10:22:36;4.00;;;1.47;;
71715;SDS011;59568;52.128;5.434;2023-07-31T10:25:03;2.95;;;1.63;;
71715;SDS011;59568;52.128;5.434;2023-07-31T10:27:34;3.88;;;1.70;;
71715;SDS011;59568;52.128;5.434;2023-07-31T10:30:03;3.65;;;1.95;;
71715;SDS011;59568;52.128;5.434;2023-07-31T10:32:31;4.40;;;1.75;;
71715;SDS011;59568;52.128;5.434;2023-07-31T10:34:59;6.63;;;2.80;;
71715;SDS011;59568;52.128;5.434;2023-07-31T10:37:50;13.75;;;7.05;;
71715;SDS011;59568;52.128;5.434;2023-07-31T10:40:25;5.97;;;2.80;;
71715;SDS011;59568;52.128;5.434;2023-07-31T10:42:55;5.78;;;2.50;;
71715;SDS011;59568;52.128;5.434;2023-07-31T10:45:43;5.70;;;2.45;;
71715;SDS011;59568;52.128;5.434;2023-07-31T10:48:16;6.13;;;2.40;;
71715;SDS011;59568;52.128;5.434;2023-07-31T10:51:11;5.45;;;2.08;;
71715;SDS011;59568;52.128;5.434;2023-07-31T10:53:41;5.18;;;2.60;;
71715;SDS011;59568;52.128;5.434;2023-07-31T10:56:14;6.85;;;2.50;;
71715;SDS011;59568;52.128;5.434;2023-07-31T10:58:59;4.63;;;2.33;;
71715;SDS011;59568;52.128;5.434;2023-07-31T11:01:55;6.17;;;2.30;;
71715;SDS011;59568;52.128;5.434;2023-07-31T11:04:24;6.70;;;2.40;;
71715;SDS011;59568;52.128;5.434;2023-07-31T11:07:00;4.20;;;2.20;;
71715;SDS011;59568;52.128;5.434;2023-07-31T11:09:32;2.95;;;1.70;;
71715;SDS011;59568;52.128;5.434;2023-07-31T11:12:09;4.88;;;1.95;;
71715;SDS011;59568;52.128;5.434;2023-07-31T11:15:10;3.77;;;1.80;;
71715;SDS011;59568;52.128;5.434;2023-07-31T11:17:41;3.83;;;1.90;;
71715;SDS011;59568;52.128;5.434;2023-07-31T11:20:10;1.92;;;1.00;;
71715;SDS011;59568;52.128;5.434;2023-07-31T11:22:37;2.72;;;1.25;;
71715;SDS011;59568;52.128;5.434;2023-07-31T11:25:04;2.47;;;1.00;;
71715;SDS011;59568;52.128;5.434;2023-07-31T11:27:31;2.57;;;1.00;;
71715;SDS011;59568;52.128;5.434;2023-07-31T11:30:06;2.40;;;0.93;;
71715;SDS011;59568;52.128;5.434;2023-07-31T11:32:37;1.60;;;0.90;;
71715;SDS011;59568;52.128;5.434;2023-07-31T11:35:12;4.40;;;1.10;;
71715;SDS011;59568;52.128;5.434;2023-07-31T11:37:43;1.55;;;1.05;;
71715;SDS011;59568;52.128;5.434;2023-07-31T11:40:12;2.13;;;1.07;;
71715;SDS011;59568;52.128;5.434;2023-07-31T11:42:42;2.00;;;1.00;;
71715;SDS011;59568;52.128;5.434;2023-07-31T11:45:09;2.75;;;1.15;;
71715;SDS011;59568;52.128;5.434;2023-07-31T11:47:37;1.30;;;0.70;;
71715;SDS011;59568;52.128;5.434;2023-07-31T11:50:04;1.85;;;1.00;;
71715;SDS011;59568;52.128;5.434;2023-07-31T11:52:37;2.70;;;1.50;;
71715;SDS011;59568;52.128;5.434;2023-07-31T11:55:11;1.73;;;0.82;;
71715;SDS011;59568;52.128;5.434;2023-07-31T11:57:39;3.03;;;1.63;;
71715;SDS011;59568;52.128;5.434;2023-07-31T12:00:08;3.47;;;1.50;;
71715;SDS011;59568;52.128;5.434;2023-07-31T12:02:40;3.28;;;1.52;;
71715;SDS011;59568;52.128;5.434;2023-07-31T12:06:02;2.53;;;1.20;;
71715;SDS011;59568;52.128;5.434;2023-07-31T12:08:29;3.47;;;1.90;;
71715;SDS011;59568;52.128;5.434;2023-07-31T12:11:02;4.90;;;2.38;;
71715;SDS011;59568;52.128;5.434;2023-07-31T12:13:32;3.53;;;2.05;;
71715;SDS011;59568;52.128;5.434;2023-07-31T12:16:00;6.20;;;1.83;;
71715;SDS011;59568;52.128;5.434;2023-07-31T12:18:30;4.37;;;2.20;;
71715;SDS011;59568;52.128;5.434;2023-07-31T12:21:01;3.97;;;2.03;;
71715;SDS011;59568;52.128;5.434;2023-07-31T12:23:31;4.20;;;2.17;;
71715;SDS011;59568;52.128;5.434;2023-07-31T12:28:28;3.15;;;1.52;;
71715;SDS011;59568;52.128;5.434;2023-07-31T12:30:59;4.10;;;1.70;;
71715;SDS011;59568;52.128;5.434;2023-07-31T12:33:30;3.47;;;1.50;;
71715;SDS011;59568;52.128;5.434;2023-07-31T12:36:00;3.00;;;1.30;;
71715;SDS011;59568;52.128;5.434;2023-07-31T12:38:31;3.25;;;1.35;;
71715;SDS011;59568;52.128;5.434;2023-07-31T12:41:01;3.17;;;1.40;;
71715;SDS011;59568;52.128;5.434;2023-07-31T12:43:28;1.90;;;1.13;;
71715;SDS011;59568;52.128;5.434;2023-07-31T12:45:55;3.00;;;1.17;;
71715;SDS011;59568;52.128;5.434;2023-07-31T12:48:22;4.18;;;1.90;;
71715;SDS011;59568;52.128;5.434;2023-07-31T12:50:51;2.42;;;1.30;;
71715;SDS011;59568;52.128;5.434;2023-07-31T12:53:20;3.53;;;1.70;;
71715;SDS011;59568;52.128;5.434;2023-07-31T12:55:53;3.60;;;1.60;;
71715;SDS011;59568;52.128;5.434;2023-07-31T12:58:28;3.40;;;2.05;;
71715;SDS011;59568;52.128;5.434;2023-07-31T13:00:59;3.95;;;1.95;;
71715;SDS011;59568;52.128;5.434;2023-07-31T13:03:26;4.13;;;2.13;;
71715;SDS011;59568;52.128;5.434;2023-07-31T13:05:53;3.65;;;2.00;;
71715;SDS011;59568;52.128;5.434;2023-07-31T13:08:20;3.03;;;1.87;;
71715;SDS011;59568;52.128;5.434;2023-07-31T13:10:49;2.67;;;1.83;;
71715;SDS011;59568;52.128;5.434;2023-07-31T13:13:16;4.70;;;2.10;;
71715;SDS011;59568;52.128;5.434;2023-07-31T13:15:43;3.20;;;2.00;;
71715;SDS011;59568;52.128;5.434;2023-07-31T13:18:11;4.03;;;2.33;;
71715;SDS011;59568;52.128;5.434;2023-07-31T13:20:38;4.03;;;2.40;;
71715;SDS011;59568;52.128;5.434;2023-07-31T13:23:04;3.35;;;2.15;;
71715;SDS011;59568;52.128;5.434;2023-07-31T13:25:36;3.72;;;2.53;;
71715;SDS011;59568;52.128;5.434;2023-07-31T13:28:03;6.40;;;2.88;;
71715;SDS011;59568;52.128;5.434;2023-07-31T13:30:31;4.50;;;2.78;;
71715;SDS011;59568;52.128;5.434;2023-07-31T13:32:58;3.70;;;2.20;;
71715;SDS011;59568;52.128;5.434;2023-07-31T13:35:25;4.97;;;2.30;;
71715;SDS011;59568;52.128;5.434;2023-07-31T13:37:51;3.47;;;1.95;;
71715;SDS011;59568;52.128;5.434;2023-07-31T13:40:18;3.28;;;2.00;;
71715;SDS011;59568;52.128;5.434;2023-07-31T13:42:44;4.55;;;1.80;;
71715;SDS011;59568;52.128;5.434;2023-07-31T13:45:13;2.07;;;1.20;;
71715;SDS011;59568;52.128;5.434;2023-07-31T13:47:39;2.17;;;1.10;;
71715;SDS011;59568;52.128;5.434;2023-07-31T13:50:06;2.60;;;1.00;;
71715;SDS011;59568;52.128;5.434;2023-07-31T13:52:33;4.38;;;0.90;;
71715;SDS011;59568;52.128;5.434;2023-07-31T13:55:00;2.88;;;1.02;;
71715;SDS011;59568;52.128;5.434;2023-07-31T13:57:26;2.17;;;1.10;;
71715;SDS011;59568;52.128;5.434;2023-07-31T13:59:54;2.13;;;1.10;;
71715;SDS011;59568;52.128;5.434;2023-07-31T14:02:20;2.72;;;1.05;;
71715;SDS011;59568;52.128;5.434;2023-07-31T14:04:47;1.65;;;0.82;;
71715;SDS011;59568;52.128;5.434;2023-07-31T14:07:13;2.80;;;0.90;;
71715;SDS011;59568;52.128;5.434;2023-07-31T14:09:40;2.00;;;1.00;;
71715;SDS011;59568;52.128;5.434;2023-07-31T14:12:07;1.35;;;0.60;;
71715;SDS011;59568;52.128;5.434;2023-07-31T14:14:33;2.08;;;0.82;;
71715;SDS011;59568;52.128;5.434;2023-07-31T14:17:01;2.33;;;0.90;;
71715;SDS011;59568;52.128;5.434;2023-07-31T14:19:28;3.25;;;1.50;;
71715;SDS011;59568;52.128;5.434;2023-07-31T14:21:58;2.80;;;1.70;;
71715;SDS011;59568;52.128;5.434;2023-07-31T14:24:37;4.45;;;2.28;;
71715;SDS011;59568;52.128;5.434;2023-07-31T14:27:04;4.60;;;3.22;;
71715;SDS011;59568;52.128;5.434;2023-07-31T14:29:31;7.13;;;3.70;;
71715;SDS011;59568;52.128;5.434;2023-07-31T14:31:57;6.63;;;3.67;;
71715;SDS011;59568;52.128;5.434;2023-07-31T14:34:26;4.63;;;3.57;;
71715;SDS011;59568;52.128;5.434;2023-07-31T14:36:52;5.47;;;3.85;;
71715;SDS011;59568;52.128;5.434;2023-07-31T14:39:22;6.65;;;3.63;;
71715;SDS011;59568;52.128;5.434;2023-07-31T14:41:50;6.45;;;3.90;;
71715;SDS011;59568;52.128;5.434;2023-07-31T14:44:17;5.05;;;3.78;;
71715;SDS011;59568;52.128;5.434;2023-07-31T14:46:44;5.37;;;3.80;;
71715;SDS011;59568;52.128;5.434;2023-07-31T14:49:11;6.22;;;3.70;;
71715;SDS011;59568;52.128;5.434;2023-07-31T14:51:38;6.55;;;4.00;;
71715;SDS011;59568;52.128;5.434;2023-07-31T14:54:06;5.38;;;3.42;;
71715;SDS011;59568;52.128;5.434;2023-07-31T14:56:33;6.93;;;4.03;;
71715;SDS011;59568;52.128;5.434;2023-07-31T14:59:01;7.27;;;3.53;;
71715;SDS011;59568;52.128;5.434;2023-07-31T15:01:27;5.82;;;3.25;;